Time,TemperatureF,DewpointF,PressureIn,WindDirection,WindDirectionDegrees,WindSpeedMPH,WindSpeedGustMPH,Humidity,HourlyPrecipIn,Conditions,Clouds,dailyrainin,SoftwareType,DateUTC
2013-01-28 14:19:00,28.7,13.3,30.20,SW,215,4.0,4.0,52,0.00,,,0.00,Wunderground v.1.13,2013-01-28 19:19:00,
2013-01-28 14:20:00,28.8,13.4,30.20,South,176,3.0,4.0,52,0.00,,,0.00,Wunderground v.1.13,2013-01-28 19:20:00,
2013-01-28 14:25:00,28.4,15.9,30.20,SSW,192,0.0,9.0,59,0.00,,,0.00,Wunderground v.1.13,2013-01-28 19:25:00,
2013-01-28 14:26:00,28.2,16.5,30.21,South,183,7.0,9.0,61,0.00,,,0.00,Wunderground v.1.13,2013-01-28 19:26:00,
2013-01-28 14:32:00,27.4,16.4,30.21,South,191,1.0,5.0,63,0.00,,,0.00,Wunderground v.1.13,2013-01-28 19:32:00,
2013-01-28 14:38:00,27.0,17.1,30.20,SSW,210,1.0,6.0,66,0.00,,,0.00,Wunderground v.1.13,2013-01-28 19:38:00,
2013-01-28 14:43:00,26.9,17.4,30.20,SSE,163,6.0,6.0,67,0.00,,,0.00,Wunderground v.1.13,2013-01-28 19:43:00,
2013-01-28 14:48:00,26.5,18.0,30.20,South,176,3.0,8.0,70,0.00,,,0.00,Wunderground v.1.13,2013-01-28 19:48:00,
2013-01-28 14:53:00,26.2,18.4,30.19,South,179,1.0,4.0,72,0.00,,,0.00,Wunderground v.1.13,2013-01-28 19:53:00,
2013-01-28 14:58:00,26.1,19.3,30.19,SE,128,3.0,5.0,75,0.00,,,0.00,Wunderground v.1.13,2013-01-28 19:58:00,
2013-01-28 15:03:00,25.8,19.3,30.19,ESE,117,3.0,5.0,76,0.00,,,0.00,Wunderground v.1.13,2013-01-28 20:03:00,
2013-01-28 15:08:00,25.7,19.5,30.19,ESE,117,2.0,3.0,77,0.00,,,0.00,Wunderground v.1.13,2013-01-28 20:08:00,
2013-01-28 15:13:00,25.5,19.6,30.20,ESE,117,0.0,3.0,78,0.00,,,0.00,Wunderground v.1.13,2013-01-28 20:13:00,
2013-01-28 15:18:00,25.5,19.9,30.19,SE,146,0.0,6.0,79,0.00,,,0.00,Wunderground v.1.13,2013-01-28 20:18:00,
2013-01-28 15:23:00,25.3,20.0,30.18,SSE,155,1.0,4.0,80,0.00,,,0.01,Wunderground v.1.13,2013-01-28 20:23:00,
2013-01-28 15:28:00,25.3,20.3,30.19,SSE,155,3.0,4.0,81,0.00,,,0.01,Wunderground v.1.13,2013-01-28 20:28:00,
2013-01-28 15:33:00,25.2,20.2,30.18,ESE,120,5.0,5.0,81,0.00,,,0.01,Wunderground v.1.13,2013-01-28 20:33:00,
2013-01-28 15:38:00,25.1,20.4,30.18,ESE,120,1.0,3.0,82,0.00,,,0.01,Wunderground v.1.13,2013-01-28 20:38:00,
2013-01-28 15:43:00,25.1,20.7,30.18,ESE,119,3.0,5.0,83,0.00,,,0.02,Wunderground v.1.13,2013-01-28 20:43:00,
2013-01-28 15:48:00,25.0,20.6,30.18,ESE,106,2.0,4.0,83,0.00,,,0.02,Wunderground v.1.13,2013-01-28 20:48:00,
2013-01-28 15:53:00,25.0,20.8,30.18,East,96,4.0,5.0,84,0.00,,,0.02,Wunderground v.1.13,2013-01-28 20:53:00,
2013-01-28 15:58:00,24.9,20.8,30.18,ESE,109,3.0,5.0,84,0.00,,,0.02,Wunderground v.1.13,2013-01-28 20:58:00,
2013-01-28 16:03:00,24.8,20.7,30.18,East,86,1.0,4.0,84,0.00,,,0.03,Wunderground v.1.13,2013-01-28 21:03:00,
2013-01-28 16:08:00,24.8,20.7,30.18,East,89,2.0,3.0,84,0.00,,,0.03,Wunderground v.1.13,2013-01-28 21:08:00,
2013-01-28 16:13:00,24.9,21.0,30.17,East,89,3.0,3.0,85,0.00,,,0.03,Wunderground v.1.13,2013-01-28 21:13:00,
2013-01-28 16:18:00,24.9,21.0,30.17,East,90,2.0,4.0,85,0.05,,,0.04,Wunderground v.1.13,2013-01-28 21:18:00,
2013-01-28 16:23:00,24.8,20.9,30.16,ESE,123,0.0,3.0,85,0.05,,,0.04,Wunderground v.1.13,2013-01-28 21:23:00,
2013-01-28 16:28:00,24.9,21.3,30.16,ESE,103,4.0,5.0,86,0.05,,,0.04,Wunderground v.1.13,2013-01-28 21:28:00,
2013-01-28 16:33:00,24.8,21.2,30.16,East,101,3.0,4.0,86,0.05,,,0.05,Wunderground v.1.13,2013-01-28 21:33:00,
2013-01-28 16:38:00,24.8,21.2,30.16,East,101,0.0,2.0,86,0.05,,,0.05,Wunderground v.1.13,2013-01-28 21:38:00,
2013-01-28 16:43:00,24.9,21.3,30.15,East,101,1.0,2.0,86,0.06,,,0.06,Wunderground v.1.13,2013-01-28 21:43:00,
2013-01-28 16:48:00,24.9,21.3,30.15,East,101,1.0,2.0,86,0.08,,,0.07,Wunderground v.1.13,2013-01-28 21:48:00,
2013-01-28 16:53:00,25.0,21.7,30.15,East,101,2.0,3.0,87,0.08,,,0.07,Wunderground v.1.13,2013-01-28 21:53:00,
2013-01-28 16:58:00,24.9,21.6,30.15,East,101,0.0,2.0,87,0.05,,,0.07,Wunderground v.1.13,2013-01-28 21:58:00,
2013-01-28 17:03:00,24.9,21.6,30.14,East,101,0.0,2.0,87,0.04,,,0.07,Wunderground v.1.13,2013-01-28 22:03:00,
2013-01-28 17:08:00,25.0,21.7,30.14,East,101,0.0,1.0,87,0.00,,,0.08,Wunderground v.1.13,2013-01-28 22:08:00,
2013-01-28 17:13:00,24.9,21.6,30.13,ESE,113,2.0,5.0,87,0.00,,,0.08,Wunderground v.1.13,2013-01-28 22:13:00,
2013-01-28 17:18:00,24.9,21.6,30.13,ESE,113,1.0,3.0,87,0.00,,,0.08,Wunderground v.1.13,2013-01-28 22:18:00,
2013-01-28 17:23:00,24.8,21.5,30.13,ESE,107,2.0,3.0,87,0.00,,,0.08,Wunderground v.1.13,2013-01-28 22:23:00,
2013-01-28 17:28:00,24.9,21.6,30.12,ESE,107,2.0,3.0,87,0.00,,,0.08,Wunderground v.1.13,2013-01-28 22:28:00,
2013-01-28 17:33:00,24.9,21.6,30.12,ESE,107,3.0,4.0,87,0.00,,,0.09,Wunderground v.1.13,2013-01-28 22:33:00,
2013-01-28 17:38:00,24.8,21.5,30.12,ESE,112,0.0,3.0,87,0.00,,,0.09,Wunderground v.1.13,2013-01-28 22:38:00,
2013-01-28 17:43:00,24.9,21.6,30.13,ESE,111,0.0,1.0,87,0.00,,,0.09,Wunderground v.1.13,2013-01-28 22:43:00,
2013-01-28 17:48:00,24.9,21.6,30.11,ESE,112,0.0,2.0,87,0.00,,,0.09,Wunderground v.1.13,2013-01-28 22:48:00,
2013-01-28 17:53:00,25.0,21.9,30.12,ESE,112,0.0,0.0,88,0.00,,,0.09,Wunderground v.1.13,2013-01-28 22:53:00,
2013-01-28 17:58:00,25.1,22.0,30.12,ESE,112,0.0,0.0,88,0.00,,,0.09,Wunderground v.1.13,2013-01-28 22:58:00,
2013-01-28 18:04:00,25.1,22.0,30.11,ESE,111,1.0,1.0,88,0.00,,,0.09,Wunderground v.1.13,2013-01-28 23:04:00,
2013-01-28 18:09:00,25.2,22.1,30.10,ESE,112,1.0,2.0,88,0.00,,,0.09,Wunderground v.1.13,2013-01-28 23:09:00,
2013-01-28 18:14:00,25.1,22.0,30.10,ESE,112,1.0,2.0,88,0.00,,,0.09,Wunderground v.1.13,2013-01-28 23:14:00,
2013-01-28 18:19:00,25.1,22.0,30.10,ESE,112,0.0,2.0,88,0.00,,,0.09,Wunderground v.1.13,2013-01-28 23:19:00,
2013-01-28 18:24:00,25.1,22.0,30.10,ESE,111,0.0,1.0,88,0.00,,,0.09,Wunderground v.1.13,2013-01-28 23:24:00,
2013-01-28 18:29:00,25.2,22.1,30.11,ESE,112,1.0,2.0,88,0.00,,,0.09,Wunderground v.1.13,2013-01-28 23:29:00,
2013-01-28 18:34:00,25.1,22.0,30.12,ESE,112,1.0,2.0,88,0.00,,,0.09,Wunderground v.1.13,2013-01-28 23:34:00,
2013-01-28 18:39:00,25.1,22.0,30.12,ESE,111,0.0,1.0,88,0.00,,,0.09,Wunderground v.1.13,2013-01-28 23:39:00,
2013-01-28 18:44:00,25.1,22.0,30.11,ESE,111,1.0,2.0,88,0.00,,,0.09,Wunderground v.1.13,2013-01-28 23:44:00,
2013-01-28 18:49:00,25.1,22.0,30.09,ESE,112,0.0,2.0,88,0.00,,,0.09,Wunderground v.1.13,2013-01-28 23:49:00,
2013-01-28 18:54:00,25.0,21.9,30.09,ESE,112,0.0,3.0,88,0.00,,,0.09,Wunderground v.1.13,2013-01-28 23:54:00,
2013-01-28 18:59:00,25.0,21.9,30.10,ESE,111,1.0,2.0,88,0.00,,,0.09,Wunderground v.1.13,2013-01-28 23:59:00,
2013-01-28 19:04:00,25.0,21.9,30.10,NE,38,3.0,4.0,88,0.00,,,0.09,Wunderground v.1.13,2013-01-29 00:04:00,
2013-01-28 19:09:00,24.9,21.8,30.10,NE,38,1.0,3.0,88,0.00,,,0.09,Wunderground v.1.13,2013-01-29 00:09:00,
2013-01-28 19:14:00,24.9,21.8,30.10,NE,46,0.0,3.0,88,0.00,,,0.09,Wunderground v.1.13,2013-01-29 00:14:00,
2013-01-28 19:19:00,25.1,22.0,30.12,NE,46,3.0,3.0,88,0.00,,,0.09,Wunderground v.1.13,2013-01-29 00:19:00,
2013-01-28 19:24:00,25.1,22.0,30.12,NW,325,1.0,3.0,88,0.00,,,0.09,Wunderground v.1.13,2013-01-29 00:24:00,
2013-01-28 19:29:00,25.2,22.1,30.11,NW,325,1.0,3.0,88,0.00,,,0.09,Wunderground v.1.13,2013-01-29 00:29:00,
2013-01-28 19:34:00,25.1,22.0,30.11,NW,325,1.0,3.0,88,0.00,,,0.09,Wunderground v.1.13,2013-01-29 00:34:00,
2013-01-28 19:39:00,25.0,21.9,30.10,NW,326,0.0,4.0,88,0.00,,,0.09,Wunderground v.1.13,2013-01-29 00:39:00,
2013-01-28 19:44:00,24.9,21.6,30.09,NW,326,1.0,2.0,87,0.00,,,0.09,Wunderground v.1.13,2013-01-29 00:44:00,
2013-01-28 19:49:00,24.8,21.8,30.09,NW,326,0.0,2.0,88,0.00,,,0.09,Wunderground v.1.13,2013-01-29 00:49:00,
2013-01-28 19:54:00,24.8,21.8,30.09,NW,326,0.0,1.0,88,0.00,,,0.09,Wunderground v.1.13,2013-01-29 00:54:00,
2013-01-28 19:59:00,24.8,21.8,30.09,NW,326,2.0,3.0,88,0.00,,,0.09,Wunderground v.1.13,2013-01-29 00:59:00,
2013-01-28 20:04:00,24.8,21.8,30.08,NW,326,0.0,3.0,88,0.00,,,0.09,Wunderground v.1.13,2013-01-29 01:04:00,
2013-01-28 20:09:00,24.8,21.8,30.08,NNW,327,0.0,3.0,88,0.00,,,0.09,Wunderground v.1.13,2013-01-29 01:09:00,
2013-01-28 20:14:00,24.8,21.8,30.08,NNW,327,0.0,2.0,88,0.00,,,0.09,Wunderground v.1.13,2013-01-29 01:14:00,
2013-01-28 20:19:00,24.8,21.8,30.07,NNW,327,0.0,2.0,88,0.00,,,0.09,Wunderground v.1.13,2013-01-29 01:19:00,
2013-01-28 20:24:00,24.9,21.8,30.07,NNW,327,0.0,2.0,88,0.00,,,0.10,Wunderground v.1.13,2013-01-29 01:24:00,
2013-01-28 20:29:00,24.9,21.8,30.07,NW,326,0.0,2.0,88,0.00,,,0.10,Wunderground v.1.13,2013-01-29 01:29:00,
2013-01-28 20:34:00,24.9,21.8,30.07,NNW,327,0.0,1.0,88,0.00,,,0.10,Wunderground v.1.13,2013-01-29 01:34:00,
2013-01-28 20:39:00,24.9,21.8,30.06,NNW,327,0.0,2.0,88,0.00,,,0.10,Wunderground v.1.13,2013-01-29 01:39:00,
2013-01-28 20:44:00,24.9,21.8,30.06,NNW,327,2.0,2.0,88,0.00,,,0.11,Wunderground v.1.13,2013-01-29 01:44:00,
2013-01-28 20:49:00,24.9,21.8,30.06,NW,326,0.0,2.0,88,0.00,,,0.11,Wunderground v.1.13,2013-01-29 01:49:00,
2013-01-28 20:54:00,24.9,21.8,30.06,NNW,327,2.0,2.0,88,0.06,,,0.12,Wunderground v.1.13,2013-01-29 01:54:00,
2013-01-28 20:59:00,24.9,21.8,30.06,NW,326,0.0,2.0,88,0.06,,,0.12,Wunderground v.1.13,2013-01-29 01:59:00,
2013-01-28 21:04:00,24.9,21.8,30.06,NW,326,0.0,2.0,88,0.04,,,0.12,Wunderground v.1.13,2013-01-29 02:04:00,
2013-01-28 21:09:00,24.9,22.1,30.06,NW,326,1.0,1.0,89,0.00,,,0.12,Wunderground v.1.13,2013-01-29 02:09:00,
2013-01-28 21:14:00,24.9,21.8,30.06,NNW,327,1.0,2.0,88,0.00,,,0.12,Wunderground v.1.13,2013-01-29 02:14:00,
2013-01-28 21:19:00,24.9,22.1,30.05,NNW,327,2.0,2.0,89,0.00,,,0.12,Wunderground v.1.13,2013-01-29 02:19:00,
2013-01-28 21:24:00,25.0,21.9,30.05,NW,326,0.0,2.0,88,0.00,,,0.12,Wunderground v.1.13,2013-01-29 02:24:00,
2013-01-28 21:29:00,25.0,21.9,30.05,NNW,327,2.0,2.0,88,0.00,,,0.12,Wunderground v.1.13,2013-01-29 02:29:00,
2013-01-28 21:34:00,25.1,22.0,30.05,NNW,327,2.0,3.0,88,0.00,,,0.12,Wunderground v.1.13,2013-01-29 02:34:00,
2013-01-28 21:39:00,25.0,22.2,30.05,NW,326,1.0,3.0,89,0.00,,,0.12,Wunderground v.1.13,2013-01-29 02:39:00,
2013-01-28 21:44:00,24.9,22.1,30.05,NW,326,3.0,4.0,89,0.00,,,0.12,Wunderground v.1.13,2013-01-29 02:44:00,
2013-01-28 21:49:00,24.8,21.8,30.05,NNW,327,2.0,4.0,88,0.00,,,0.12,Wunderground v.1.13,2013-01-29 02:49:00,
2013-01-28 21:54:00,24.8,21.8,30.05,NNW,327,2.0,5.0,88,0.00,,,0.12,Wunderground v.1.13,2013-01-29 02:54:00,
2013-01-28 21:59:00,24.7,21.7,30.05,NNW,327,2.0,3.0,88,0.00,,,0.13,Wunderground v.1.13,2013-01-29 02:59:00,
2013-01-28 22:04:00,24.7,21.7,30.04,NW,326,0.0,3.0,88,0.00,,,0.13,Wunderground v.1.13,2013-01-29 03:04:00,
2013-01-28 22:09:00,24.7,21.7,30.04,NNW,327,1.0,3.0,88,0.00,,,0.13,Wunderground v.1.13,2013-01-29 03:09:00,
2013-01-28 22:14:00,24.6,21.6,30.04,NNW,327,3.0,3.0,88,0.00,,,0.13,Wunderground v.1.13,2013-01-29 03:14:00,
2013-01-28 22:19:00,24.6,21.6,30.04,NW,326,0.0,3.0,88,0.00,,,0.14,Wunderground v.1.13,2013-01-29 03:19:00,
2013-01-28 22:24:00,24.6,21.6,30.04,NNW,327,2.0,4.0,88,0.00,,,0.14,Wunderground v.1.13,2013-01-29 03:24:00,
2013-01-28 22:30:00,24.5,21.5,30.04,NNW,327,2.0,2.0,88,0.00,,,0.14,Wunderground v.1.13,2013-01-29 03:30:00,
2013-01-28 22:35:00,24.5,21.5,30.04,NW,326,1.0,2.0,88,0.00,,,0.14,Wunderground v.1.13,2013-01-29 03:35:00,
2013-01-28 22:40:00,24.6,21.6,30.04,NNW,327,0.0,1.0,88,0.00,,,0.14,Wunderground v.1.13,2013-01-29 03:40:00,
2013-01-28 22:45:00,24.6,21.6,30.04,NNW,327,2.0,2.0,88,0.00,,,0.14,Wunderground v.1.13,2013-01-29 03:45:00,
2013-01-28 22:50:00,24.6,21.6,30.04,NNW,327,2.0,2.0,88,0.00,,,0.14,Wunderground v.1.13,2013-01-29 03:50:00,
2013-01-28 22:55:00,24.6,21.6,30.04,NW,326,0.0,1.0,88,0.00,,,0.14,Wunderground v.1.13,2013-01-29 03:55:00,
2013-01-28 23:00:00,24.6,21.6,30.04,NW,326,0.0,1.0,88,0.00,,,0.14,Wunderground v.1.13,2013-01-29 04:00:00,
2013-01-28 23:05:00,24.6,21.6,30.04,NNW,327,2.0,2.0,88,0.00,,,0.14,Wunderground v.1.13,2013-01-29 04:05:00,
2013-01-28 23:10:00,24.6,21.6,30.03,NW,326,0.0,2.0,88,0.00,,,0.14,Wunderground v.1.13,2013-01-29 04:10:00,
2013-01-28 23:15:00,24.5,21.5,30.04,NW,326,2.0,3.0,88,0.00,,,0.14,Wunderground v.1.13,2013-01-29 04:15:00,
2013-01-28 23:20:00,24.5,21.5,30.04,NNW,327,2.0,2.0,88,0.00,,,0.14,Wunderground v.1.13,2013-01-29 04:20:00,
2013-01-28 23:25:00,24.5,21.5,30.04,NNW,327,2.0,3.0,88,0.00,,,0.15,Wunderground v.1.13,2013-01-29 04:25:00,
2013-01-28 23:30:00,24.5,21.5,30.03,NNW,327,2.0,3.0,88,0.00,,,0.15,Wunderground v.1.13,2013-01-29 04:30:00,
2013-01-28 23:35:00,24.5,21.5,30.04,NNW,327,2.0,3.0,88,0.00,,,0.15,Wunderground v.1.13,2013-01-29 04:35:00,
2013-01-28 23:40:00,24.5,21.5,30.03,NW,326,0.0,1.0,88,0.00,,,0.15,Wunderground v.1.13,2013-01-29 04:40:00,
2013-01-28 23:45:00,24.5,21.5,30.03,NW,326,3.0,3.0,88,0.00,,,0.15,Wunderground v.1.13,2013-01-29 04:45:00,
2013-01-28 23:50:00,24.5,21.5,30.03,NNW,327,2.0,2.0,88,0.00,,,0.15,Wunderground v.1.13,2013-01-29 04:50:00,
2013-01-28 23:55:00,24.5,21.5,30.04,NNW,327,1.0,2.0,88,0.00,,,0.15,Wunderground v.1.13,2013-01-29 04:55:00,